Time;durP1;ratioP1;P1;durP2;ratioP2;P2;SDS_P1;SDS_P2;PMS_P1;PMS_P2;Temp;Humidity;BMP_temperature;BMP_pressure;BME280_temperature;BME280_humidity;BME280_pressure;Samples;Min_cycle;Max_cycle;Signal;HPM_P1;HPM_P2
2021/04/25 00:00:52;;;;;;;8.27;2.30;;;35.60;15.70;;;;;;5098177;28;20103;-61
2021/04/25 00:03:19;;;;;;;21.20;8.25;;;35.30;16.30;;;;;;5095696;28;20158;-59
2021/04/25 00:05:45;;;;;;;12.68;3.05;;;35.30;15.50;;;;;;5099148;28;20171;-61
2021/04/25 00:08:12;;;;;;;16.85;2.85;;;35.30;14.70;;;;;;5080744;28;20181;-58
2021/04/25 00:10:38;;;;;;;9.35;3.33;;;35.10;14.60;;;;;;5099644;28;20068;-62
2021/04/25 00:13:05;;;;;;;35.45;4.25;;;35.00;14.20;;;;;;5099423;28;20076;-59
2021/04/25 00:15:31;;;;;;;14.07;2.38;;;34.70;14.50;;;;;;5098483;28;20538;-61
2021/04/25 00:17:58;;;;;;;16.00;2.50;;;34.60;14.40;;;;;;5097915;28;20159;-61
2021/04/25 00:20:25;;;;;;;13.90;2.85;;;34.60;15.10;;;;;;5099269;28;20069;-61
2021/04/25 00:22:51;;;;;;;24.75;2.80;;;34.60;17.90;;;;;;5064635;28;20073;-62
2021/04/25 00:25:19;;;;;;;28.42;5.43;;;34.50;19.20;;;;;;5097688;28;20072;-61
2021/04/25 00:27:47;;;;;;;19.63;3.83;;;34.50;19.60;;;;;;5091586;28;20096;-58
2021/04/25 00:30:19;;;;;;;7.50;2.45;;;34.20;17.30;;;;;;5100828;28;20076;-60
2021/04/25 00:32:46;;;;;;;11.52;2.00;;;34.20;15.60;;;;;;5095123;28;20151;-63
2021/04/25 00:35:14;;;;;;;11.95;2.22;;;34.20;15.90;;;;;;5065740;28;20107;-62
2021/04/25 00:37:41;;;;;;;13.32;2.80;;;34.00;16.10;;;;;;5102437;28;20069;-61
2021/04/25 00:40:11;;;;;;;9.48;2.42;;;33.80;18.00;;;;;;5093824;28;20076;-62
2021/04/25 00:42:38;;;;;;;27.88;2.83;;;33.80;18.90;;;;;;5095723;28;20151;-61
2021/04/25 00:45:08;;;;;;;11.85;2.45;;;33.60;17.60;;;;;;5079007;28;20075;-62
2021/04/25 00:47:36;;;;;;;16.00;2.97;;;33.50;18.00;;;;;;5097621;28;20113;-63
2021/04/25 00:50:05;;;;;;;14.75;2.60;;;33.50;20.10;;;;;;5094452;28;20109;-63
2021/04/25 00:52:37;;;;;;;16.35;2.45;;;33.60;20.20;;;;;;5093309;28;20157;-61
2021/04/25 00:55:05;;;;;;;12.00;2.20;;;33.60;20.30;;;;;;5100897;28;20080;-61
2021/04/25 00:57:32;;;;;;;19.00;2.65;;;33.80;20.00;;;;;;5097967;28;20068;-64
2021/04/25 00:59:59;;;;;;;13.30;2.67;;;33.70;19.90;;;;;;5080221;28;20092;-61
2021/04/25 01:02:29;;;;;;;14.25;2.80;;;33.50;19.80;;;;;;5097022;28;20100;-61
2021/04/25 01:04:55;;;;;;;13.77;1.88;;;33.40;19.40;;;;;;5081311;28;20080;-60
2021/04/25 01:07:22;;;;;;;12.95;2.35;;;33.40;19.30;;;;;;5096152;28;20104;-60
2021/04/25 01:09:48;;;;;;;13.70;2.47;;;33.40;19.20;;;;;;5098285;28;20099;-60
2021/04/25 01:12:15;;;;;;;7.45;1.88;;;33.30;19.30;;;;;;5092671;28;20092;-61
2021/04/25 01:14:41;;;;;;;19.13;3.03;;;33.30;19.00;;;;;;5094432;28;20071;-61
2021/04/25 01:17:08;;;;;;;10.48;2.30;;;33.10;19.20;;;;;;5094472;28;20076;-60
2021/04/25 01:19:35;;;;;;;9.23;2.00;;;33.00;19.20;;;;;;5096851;28;20163;-59
2021/04/25 01:22:01;;;;;;;16.40;2.55;;;32.90;19.30;;;;;;5094830;28;20454;-62
2021/04/25 01:24:28;;;;;;;14.55;2.78;;;32.80;19.50;;;;;;5094914;28;20114;-61
2021/04/25 01:26:54;;;;;;;15.35;2.75;;;32.70;19.90;;;;;;5095529;28;20632;-58
2021/04/25 01:29:21;;;;;;;18.23;3.72;;;32.60;20.10;;;;;;5094307;28;20076;-60
2021/04/25 01:31:48;;;;;;;16.25;3.25;;;32.40;20.20;;;;;;5081394;28;20100;-61
2021/04/25 01:34:14;;;;;;;20.40;3.30;;;32.30;20.40;;;;;;5096764;28;20064;-60
2021/04/25 01:36:41;;;;;;;14.13;3.47;;;32.20;20.50;;;;;;5094260;28;20168;-60
2021/04/25 01:39:07;;;;;;;11.90;3.15;;;32.10;20.90;;;;;;5094388;28;20147;-58
2021/04/25 01:41:34;;;;;;;17.58;3.20;;;31.90;21.00;;;;;;5099443;28;20077;-60
2021/04/25 01:44:02;;;;;;;16.48;3.25;;;31.80;21.10;;;;;;5096039;28;20089;-60
2021/04/25 01:46:29;;;;;;;12.65;2.75;;;31.70;21.30;;;;;;5098065;28;20218;-62
2021/04/25 01:48:57;;;;;;;18.98;2.88;;;31.50;21.60;;;;;;5096974;28;20092;-60
2021/04/25 01:51:24;;;;;;;14.70;2.60;;;31.40;22.00;;;;;;5093935;28;20433;-61
2021/04/25 01:53:50;;;;;;;14.55;2.78;;;31.30;22.00;;;;;;5098602;28;20076;-59
2021/04/25 01:56:17;;;;;;;16.40;2.55;;;31.20;22.00;;;;;;5083306;28;20079;-60
2021/04/25 01:58:43;;;;;;;19.35;2.60;;;31.10;22.10;;;;;;5098660;28;20103;-61
2021/04/25 02:01:10;;;;;;;20.48;2.85;;;31.00;22.00;;;;;;5094291;28;20072;-60
2021/04/25 02:03:36;;;;;;;19.52;2.85;;;30.90;22.20;;;;;;5099865;28;20087;-60
2021/04/25 02:06:03;;;;;;;21.90;3.38;;;30.80;22.10;;;;;;5096668;28;20565;-62
2021/04/25 02:08:30;;;;;;;18.90;3.60;;;30.70;22.10;;;;;;5096350;28;20092;-59
2021/04/25 02:10:56;;;;;;;21.08;3.67;;;30.70;22.20;;;;;;5101254;28;20065;-61
2021/04/25 02:13:23;;;;;;;29.20;6.93;;;30.60;21.90;;;;;;5079962;28;20080;-58
2021/04/25 02:15:50;;;;;;;23.50;5.43;;;30.50;22.00;;;;;;5093535;28;20477;-58
2021/04/25 02:18:16;;;;;;;20.92;4.55;;;30.30;22.00;;;;;;5098534;28;20095;-59
2021/04/25 02:20:43;;;;;;;27.42;7.95;;;30.30;21.90;;;;;;5097274;28;20087;-58
2021/04/25 02:23:10;;;;;;;37.58;7.85;;;30.20;22.30;;;;;;5095741;28;20076;-59
2021/04/25 02:25:36;;;;;;;28.25;6.97;;;30.10;22.40;;;;;;5096556;28;20138;-59
2021/04/25 02:28:03;;;;;;;19.58;5.45;;;30.00;22.60;;;;;;5082345;28;20107;-61
2021/04/25 02:30:35;;;;;;;16.50;4.75;;;29.80;22.70;;;;;;5098565;28;20068;-61
2021/04/25 02:33:02;;;;;;;21.70;5.15;;;29.70;22.60;;;;;;5098784;28;20494;-59
2021/04/25 02:35:29;;;;;;;23.13;5.55;;;29.60;22.60;;;;;;5092687;28;20068;-61
2021/04/25 02:37:59;;;;;;;22.20;5.97;;;29.50;22.80;;;;;;5094319;28;20093;-57
2021/04/25 02:40:28;;;;;;;16.10;3.83;;;29.40;23.00;;;;;;5097104;28;20130;-60
2021/04/25 02:42:56;;;;;;;11.43;3.15;;;29.30;22.60;;;;;;5097167;28;20133;-59
2021/04/25 02:45:24;;;;;;;7.05;3.03;;;29.20;21.40;;;;;;5097793;28;20484;-59
2021/04/25 02:47:54;;;;;;;10.13;3.60;;;29.00;21.40;;;;;;5098174;28;20108;-59
2021/04/25 02:50:24;;;;;;;10.82;3.63;;;28.90;21.30;;;;;;5096348;28;20072;-60
2021/04/25 02:52:51;;;;;;;16.20;3.22;;;28.80;21.60;;;;;;5102146;28;20440;-60
2021/04/25 02:55:17;;;;;;;11.68;2.83;;;28.70;21.60;;;;;;5102937;28;20081;-57
2021/04/25 02:57:44;;;;;;;9.10;2.80;;;28.50;21.70;;;;;;5101717;28;20072;-58
2021/04/25 03:00:15;;;;;;;11.70;3.17;;;28.50;21.90;;;;;;5102571;28;20551;-60
2021/04/25 03:02:42;;;;;;;12.10;2.63;;;28.40;22.30;;;;;;5099954;28;20076;-60
2021/04/25 03:05:09;;;;;;;7.60;2.47;;;28.30;22.40;;;;;;5082902;28;20076;-58
2021/04/25 03:07:36;;;;;;;10.65;3.08;;;28.20;23.00;;;;;;5098694;28;20150;-59
2021/04/25 03:10:04;;;;;;;10.27;2.80;;;28.10;22.70;;;;;;5100639;28;20064;-59
2021/04/25 03:12:30;;;;;;;16.05;2.90;;;28.00;23.00;;;;;;5101859;28;20072;-57
2021/04/25 03:14:57;;;;;;;14.68;3.67;;;27.90;23.20;;;;;;5099854;28;20529;-59
2021/04/25 03:17:24;;;;;;;9.20;2.85;;;27.70;23.40;;;;;;5099223;28;20076;-60
2021/04/25 03:19:50;;;;;;;13.43;2.88;;;27.70;23.70;;;;;;5103027;28;20104;-60
2021/04/25 03:22:17;;;;;;;12.18;3.10;;;27.50;23.90;;;;;;5099453;28;20532;-57
2021/04/25 03:24:44;;;;;;;8.95;2.90;;;27.50;24.20;;;;;;5103879;28;20432;-59
2021/04/25 03:27:10;;;;;;;14.65;2.72;;;27.40;24.40;;;;;;5101342;28;20088;-57
2021/04/25 03:29:37;;;;;;;16.90;3.25;;;27.40;24.40;;;;;;5099455;28;20485;-59
2021/04/25 03:32:03;;;;;;;7.47;2.80;;;27.40;24.80;;;;;;5100685;28;20107;-61
2021/04/25 03:34:30;;;;;;;12.15;3.35;;;27.30;24.90;;;;;;5103077;28;20083;-60
2021/04/25 03:36:57;;;;;;;14.40;3.67;;;27.20;25.00;;;;;;5100140;28;20076;-59
2021/04/25 03:39:23;;;;;;;16.48;3.70;;;27.10;25.10;;;;;;5099214;28;20186;-59
2021/04/25 03:41:50;;;;;;;18.13;3.50;;;27.10;25.30;;;;;;5077564;28;20073;-60
2021/04/25 03:44:17;;;;;;;17.20;3.20;;;27.00;25.40;;;;;;5099441;28;20445;-59
2021/04/25 03:46:43;;;;;;;14.15;4.78;;;27.00;25.20;;;;;;5100712;28;20120;-62
2021/04/25 03:49:10;;;;;;;15.80;4.68;;;26.90;26.00;;;;;;5098285;28;20080;-60
2021/04/25 03:51:37;;;;;;;15.40;4.00;;;26.80;25.40;;;;;;5103362;28;20873;-59
2021/04/25 03:54:04;;;;;;;19.00;3.53;;;26.70;25.30;;;;;;5097419;28;20083;-59
2021/04/25 03:56:31;;;;;;;21.00;3.20;;;26.70;25.40;;;;;;5100733;28;20068;-62
2021/04/25 03:59:00;;;;;;;16.58;2.78;;;26.60;25.50;;;;;;5101467;28;20432;-59
2021/04/25 04:01:27;;;;;;;12.57;2.78;;;26.50;25.40;;;;;;5099852;28;20068;-57
2021/04/25 04:03:53;;;;;;;23.25;3.22;;;26.30;25.50;;;;;;5099375;28;20087;-58
2021/04/25 04:06:20;;;;;;;12.38;2.78;;;26.30;25.70;;;;;;5097182;28;20068;-59
2021/04/25 04:08:46;;;;;;;12.85;2.90;;;26.20;25.60;;;;;;5099798;28;20156;-58
2021/04/25 04:11:13;;;;;;;12.43;2.40;;;26.20;25.60;;;;;;5097461;28;20077;-60
2021/04/25 04:13:39;;;;;;;10.55;2.67;;;26.00;25.70;;;;;;5099307;28;20081;-61
2021/04/25 04:16:06;;;;;;;13.30;3.17;;;25.90;25.80;;;;;;5099191;28;20080;-60
2021/04/25 04:18:32;;;;;;;19.83;3.90;;;25.80;25.80;;;;;;5098569;28;21028;-57
2021/04/25 04:20:59;;;;;;;14.63;3.08;;;25.80;25.90;;;;;;5098090;28;20164;-59
2021/04/25 04:23:25;;;;;;;9.70;3.38;;;25.70;26.30;;;;;;5100871;28;20585;-57
2021/04/25 04:25:52;;;;;;;17.00;3.10;;;25.70;26.00;;;;;;5103709;28;20087;-60
2021/04/25 04:28:19;;;;;;;14.85;3.00;;;25.70;26.00;;;;;;5100895;28;20096;-62
2021/04/25 04:30:45;;;;;;;15.88;3.17;;;25.70;25.90;;;;;;5099784;28;20115;-58
2021/04/25 04:33:12;;;;;;;15.73;3.72;;;25.70;25.80;;;;;;5102562;28;20574;-60
2021/04/25 04:35:38;;;;;;;8.57;2.60;;;25.60;25.90;;;;;;5099384;28;20133;-60
2021/04/25 04:38:05;;;;;;;8.15;2.50;;;25.60;25.70;;;;;;5082327;28;20133;-58
2021/04/25 04:40:32;;;;;;;12.07;3.20;;;25.60;26.20;;;;;;5097887;28;20076;-62
2021/04/25 04:42:58;;;;;;;16.88;2.75;;;25.60;25.60;;;;;;5081892;28;20069;-57
2021/04/25 04:45:25;;;;;;;10.45;2.50;;;25.60;25.40;;;;;;5099285;28;20125;-59
2021/04/25 04:47:51;;;;;;;11.85;2.95;;;25.50;25.80;;;;;;5100936;28;20123;-59
2021/04/25 04:50:19;;;;;;;17.13;3.15;;;25.40;25.90;;;;;;5098148;28;20068;-58
2021/04/25 04:52:47;;;;;;;10.13;2.58;;;25.30;26.10;;;;;;5101439;28;20108;-58
2021/04/25 04:55:15;;;;;;;12.60;2.67;;;25.10;26.30;;;;;;5097714;28;20088;-59
2021/04/25 04:57:42;;;;;;;12.52;2.40;;;25.10;25.60;;;;;;5080807;28;20072;-60
2021/04/25 05:00:10;;;;;;;12.25;2.85;;;25.10;25.80;;;;;;5082038;28;20089;-57
2021/04/25 05:02:37;;;;;;;9.25;3.08;;;25.10;26.10;;;;;;5097646;28;20540;-55
2021/04/25 05:05:06;;;;;;;11.07;2.50;;;24.90;26.00;;;;;;5100405;28;20083;-57
2021/04/25 05:07:33;;;;;;;12.50;2.60;;;24.90;26.20;;;;;;5098422;28;20636;-58
2021/04/25 05:10:00;;;;;;;9.68;2.40;;;24.90;26.20;;;;;;5061708;28;20163;-60
2021/04/25 05:12:26;;;;;;;8.27;1.92;;;24.70;26.40;;;;;;5098114;28;20100;-58
2021/04/25 05:14:53;;;;;;;16.00;2.38;;;24.70;26.00;;;;;;5097823;28;20076;-64
2021/04/25 05:17:19;;;;;;;10.40;1.98;;;24.60;25.90;;;;;;5097542;28;20121;-61
2021/04/25 05:19:46;;;;;;;6.82;2.08;;;24.50;25.50;;;;;;5097110;28;20072;-60
2021/04/25 05:22:13;;;;;;;4.00;2.00;;;24.50;25.20;;;;;;5100071;28;20537;-60
2021/04/25 05:24:39;;;;;;;11.02;2.42;;;24.40;25.30;;;;;;5097556;28;20100;-59
2021/04/25 05:27:06;;;;;;;7.75;2.20;;;24.40;25.00;;;;;;5095034;28;20135;-58
2021/04/25 05:29:32;;;;;;;9.40;2.13;;;24.40;24.90;;;;;;5095725;28;20083;-58
2021/04/25 05:32:01;;;;;;;8.07;2.22;;;24.40;24.80;;;;;;5080598;28;20418;-60
2021/04/25 05:34:28;;;;;;;12.13;2.38;;;24.40;24.60;;;;;;5095806;28;20072;-61
2021/04/25 05:36:54;;;;;;;9.43;3.97;;;24.40;24.60;;;;;;5097332;28;20072;-60
2021/04/25 05:39:21;;;;;;;12.00;3.58;;;24.40;24.60;;;;;;5099086;28;20529;-60
2021/04/25 05:41:47;;;;;;;5.72;2.47;;;24.40;24.60;;;;;;5099674;28;20069;-60
2021/04/25 05:44:14;;;;;;;3.92;2.22;;;24.30;24.60;;;;;;5099015;28;20073;-54
2021/04/25 05:46:40;;;;;;;8.55;1.98;;;24.30;24.60;;;;;;5100061;28;20201;-58
2021/04/25 05:49:07;;;;;;;3.85;1.45;;;24.30;24.50;;;;;;5095392;28;20072;-62
2021/04/25 05:51:33;;;;;;;6.30;1.52;;;24.30;24.10;;;;;;5094460;28;20961;-62
2021/04/25 05:54:00;;;;;;;10.23;2.00;;;24.20;23.80;;;;;;5095594;28;20075;-59
2021/04/25 05:56:28;;;;;;;6.05;1.65;;;24.20;23.70;;;;;;5097639;28;20068;-61
2021/04/25 05:58:54;;;;;;;8.13;2.75;;;24.20;23.80;;;;;;5102093;28;20146;-62
2021/04/25 06:01:21;;;;;;;5.75;1.48;;;24.20;23.60;;;;;;5095152;28;20552;-60
2021/04/25 06:03:47;;;;;;;4.03;1.77;;;24.20;23.30;;;;;;5095459;28;20075;-59
2021/04/25 06:06:14;;;;;;;5.57;1.60;;;24.10;23.40;;;;;;5099888;28;20083;-64
2021/04/25 06:08:42;;;;;;;7.18;2.00;;;24.20;23.60;;;;;;5096543;28;20116;-61
2021/04/25 06:11:09;;;;;;;5.20;1.67;;;24.10;23.50;;;;;;5095975;28;20501;-59
2021/04/25 06:13:36;;;;;;;9.25;1.60;;;24.10;23.60;;;;;;5091571;28;20452;-59
2021/04/25 06:16:04;;;;;;;8.98;1.90;;;24.00;23.70;;;;;;5092644;28;20196;-58
2021/04/25 06:18:30;;;;;;;8.40;1.77;;;24.00;23.80;;;;;;5093558;28;20084;-59
2021/04/25 06:20:57;;;;;;;7.80;2.13;;;23.90;24.10;;;;;;5094080;28;20145;-60
2021/04/25 06:23:24;;;;;;;5.78;1.83;;;23.90;24.20;;;;;;5098490;28;20172;-57
2021/04/25 06:25:50;;;;;;;4.97;2.00;;;23.80;24.30;;;;;;5095255;28;20077;-58
2021/04/25 06:28:17;;;;;;;5.95;1.60;;;23.70;24.40;;;;;;5100737;28;20096;-60
2021/04/25 06:30:44;;;;;;;14.13;6.15;;;23.70;24.70;;;;;;5095380;28;20077;-62
2021/04/25 06:33:10;;;;;;;13.85;5.28;;;23.70;24.70;;;;;;5099970;28;20076;-59
2021/04/25 06:35:37;;;;;;;11.40;4.70;;;23.70;24.90;;;;;;5077271;28;20068;-57
2021/04/25 06:38:03;;;;;;;13.82;6.90;;;23.70;25.00;;;;;;5099241;28;20084;-59
2021/04/25 06:40:30;;;;;;;13.13;4.28;;;23.70;25.20;;;;;;5101175;28;20088;-58
2021/04/25 06:42:58;;;;;;;8.93;3.28;;;23.60;25.30;;;;;;5095088;28;20069;-55
2021/04/25 06:45:24;;;;;;;3.83;1.70;;;23.50;25.60;;;;;;5099998;28;20076;-57
2021/04/25 06:47:51;;;;;;;6.85;2.03;;;23.50;25.50;;;;;;5096123;28;20572;-57
2021/04/25 06:50:18;;;;;;;7.65;1.92;;;23.40;25.60;;;;;;5098856;28;20111;-59
2021/04/25 06:52:47;;;;;;;7.28;2.00;;;23.40;25.90;;;;;;5092126;28;20151;-60
2021/04/25 06:55:15;;;;;;;17.52;4.25;;;23.30;26.20;;;;;;5100509;28;20543;-59
2021/04/25 06:57:46;;;;;;;18.48;8.40;;;23.20;26.50;;;;;;5096847;28;20554;-59
2021/04/25 07:00:14;;;;;;;14.90;5.93;;;23.10;26.60;;;;;;5099459;28;20061;-59
2021/04/25 07:02:41;;;;;;;34.28;15.93;;;23.10;26.60;;;;;;5097925;28;20072;-59
2021/04/25 07:05:25;;;;;;;36.95;14.85;;;23.00;26.40;;;;;;5094224;28;20152;-59
2021/04/25 07:07:52;;;;;;;15.70;5.95;;;22.90;26.30;;;;;;5101498;28;20144;-57
2021/04/25 07:10:19;;;;;;;13.40;2.80;;;22.80;26.50;;;;;;5071007;28;20084;-57
2021/04/25 07:12:46;;;;;;;15.70;2.97;;;22.80;26.40;;;;;;5095435;28;20091;-57
2021/04/25 07:15:22;;;;;;;13.43;2.20;;;22.80;26.30;;;;;;5097635;28;20752;-59
2021/04/25 07:17:49;;;;;;;7.00;1.80;;;22.80;26.20;;;;;;5094987;28;20084;-58
2021/04/25 07:20:18;;;;;;;11.10;2.72;;;22.80;25.80;;;;;;5092264;28;20077;-58
2021/04/25 07:22:44;;;;;;;17.25;6.18;;;22.80;26.30;;;;;;5091634;28;20077;-59
2021/04/25 07:25:11;;;;;;;16.13;5.72;;;22.80;26.60;;;;;;5093778;28;20134;-56
2021/04/25 07:27:38;;;;;;;10.23;2.60;;;22.90;26.30;;;;;;5094678;28;20176;-62
2021/04/25 07:30:09;;;;;;;13.27;2.67;;;22.80;26.00;;;;;;5093193;28;20072;-59
2021/04/25 07:32:36;;;;;;;17.75;2.40;;;22.80;26.40;;;;;;5096055;28;20103;-56
2021/04/25 07:35:04;;;;;;;16.23;2.70;;;22.70;26.50;;;;;;5093364;28;20495;-60
2021/04/25 07:37:31;;;;;;;19.58;2.65;;;22.70;26.50;;;;;;5093220;28;20478;-55
2021/04/25 07:39:57;;;;;;;14.80;2.55;;;22.60;26.70;;;;;;5092622;28;20069;-58
2021/04/25 07:42:24;;;;;;;13.15;2.65;;;22.50;27.00;;;;;;5093315;28;20081;-59
2021/04/25 07:44:51;;;;;;;9.98;2.28;;;22.50;27.30;;;;;;5098233;28;20080;-59
2021/04/25 07:47:17;;;;;;;12.85;2.25;;;22.40;27.00;;;;;;5096212;28;20203;-58
2021/04/25 07:49:43;;;;;;;13.98;1.88;;;22.40;27.50;;;;;;5075076;28;20088;-60
2021/04/25 07:52:10;;;;;;;13.15;2.58;;;22.40;27.40;;;;;;5098112;28;20087;-61
2021/04/25 07:54:36;;;;;;;15.40;2.85;;;22.40;27.50;;;;;;5094427;28;20128;-57
2021/04/25 07:57:03;;;;;;;12.57;2.60;;;22.40;27.50;;;;;;5093780;28;20068;-59
2021/04/25 07:59:30;;;;;;;11.27;2.58;;;22.30;27.50;;;;;;5076378;28;20478;-58
2021/04/25 08:02:00;;;;;;;8.98;1.95;;;22.30;27.80;;;;;;5096361;28;20217;-57
2021/04/25 08:04:26;;;;;;;15.80;2.58;;;22.30;27.60;;;;;;5093421;28;20077;-60
2021/04/25 08:06:54;;;;;;;20.17;3.13;;;22.20;27.60;;;;;;5096123;28;20161;-57
2021/04/25 08:09:20;;;;;;;12.50;2.40;;;22.10;27.60;;;;;;5092183;28;20073;-59
2021/04/25 08:11:47;;;;;;;14.80;2.38;;;22.00;27.60;;;;;;5094721;28;20543;-54
2021/04/25 08:14:13;;;;;;;14.48;3.25;;;22.00;27.80;;;;;;5094674;28;20080;-60
2021/04/25 08:16:40;;;;;;;12.55;2.63;;;22.00;28.40;;;;;;5088825;28;20076;-59
2021/04/25 08:19:09;;;;;;;19.50;2.85;;;22.00;28.70;;;;;;5098346;28;20080;-56
2021/04/25 08:21:35;;;;;;;12.38;2.33;;;21.80;28.70;;;;;;5094138;28;20122;-53
2021/04/25 08:24:04;;;;;;;7.22;2.05;;;21.80;29.00;;;;;;5094004;28;20544;-59
2021/04/25 08:26:30;;;;;;;12.68;2.90;;;21.70;28.80;;;;;;5091088;28;20101;-59
2021/04/25 08:28:57;;;;;;;14.70;2.70;;;21.70;28.70;;;;;;5094638;28;20105;-57
2021/04/25 08:31:24;;;;;;;22.75;3.53;;;21.70;28.80;;;;;;5093092;28;20558;-57
2021/04/25 08:33:50;;;;;;;18.63;3.03;;;21.60;29.20;;;;;;5093710;28;20085;-59
2021/04/25 08:36:17;;;;;;;19.33;3.50;;;21.60;29.00;;;;;;5091652;28;20118;-59
2021/04/25 08:38:45;;;;;;;14.68;3.50;;;21.50;29.30;;;;;;5093052;28;20175;-59
2021/04/25 08:41:15;;;;;;;18.67;4.13;;;21.40;29.50;;;;;;5094428;28;20075;-56
2021/04/25 08:43:52;;;;;;;18.10;3.97;;;21.40;29.60;;;;;;5098112;28;20076;-56
2021/04/25 08:46:20;;;;;;;12.45;3.15;;;21.40;30.00;;;;;;5091704;28;20108;-59
2021/04/25 08:48:50;;;;;;;17.75;3.50;;;21.30;30.30;;;;;;5091188;28;20457;-57
2021/04/25 08:51:18;;;;;;;18.70;2.80;;;21.20;30.00;;;;;;5097833;28;20123;-59
2021/04/25 08:53:45;;;;;;;15.85;3.90;;;21.20;30.90;;;;;;5096803;28;20064;-59
2021/04/25 08:56:14;;;;;;;22.10;3.83;;;21.10;30.10;;;;;;5093699;28;20471;-58
2021/04/25 08:58:42;;;;;;;20.60;3.67;;;21.00;30.60;;;;;;5074512;28;20073;-60
2021/04/25 09:01:09;;;;;;;26.95;3.97;;;20.90;30.80;;;;;;5096719;28;20068;-59
2021/04/25 09:03:36;;;;;;;23.77;3.78;;;20.90;30.90;;;;;;5088263;28;20076;-60
2021/04/25 09:06:05;;;;;;;24.45;4.25;;;20.90;31.40;;;;;;5091208;28;20104;-59
2021/04/25 09:08:45;;;;;;;16.23;4.30;;;20.90;31.30;;;;;;5075429;28;20207;-58
2021/04/25 09:11:25;;;;;;;24.13;4.45;;;21.00;31.00;;;;;;5091752;28;20071;-60
2021/04/25 09:14:22;;;;;;;22.63;4.85;;;20.80;31.30;;;;;;5091697;28;20441;-59
2021/04/25 09:16:54;;;;;;;23.47;5.60;;;20.80;32.00;;;;;;5076581;28;20120;-59
2021/04/25 09:19:25;;;;;;;33.58;5.22;;;20.70;32.80;;;;;;5091218;28;20814;-58
2021/04/25 09:21:54;;;;;;;29.27;5.28;;;20.60;32.70;;;;;;5075184;28;20083;-59
2021/04/25 09:24:27;;;;;;;23.48;5.07;;;20.50;32.80;;;;;;5089662;28;20073;-59
2021/04/25 09:26:55;;;;;;;24.00;5.00;;;20.50;32.70;;;;;;5088974;28;20083;-59
2021/04/25 09:29:46;;;;;;;26.40;4.45;;;20.50;32.90;;;;;;5091100;28;20420;-58
2021/04/25 09:32:30;;;;;;;21.10;4.82;;;20.40;32.70;;;;;;5089056;28;20147;-57
2021/04/25 09:35:18;;;;;;;31.45;5.50;;;20.40;32.70;;;;;;5096025;28;20103;-57
2021/04/25 09:37:49;;;;;;;30.58;6.05;;;20.40;33.00;;;;;;5096271;28;20092;-59
2021/04/25 09:40:21;;;;;;;24.42;4.07;;;20.40;32.40;;;;;;5087330;28;20100;-59
2021/04/25 09:43:08;;;;;;;27.00;4.50;;;20.30;32.90;;;;;;5091250;28;20084;-59
2021/04/25 09:45:46;;;;;;;20.92;3.63;;;20.30;33.70;;;;;;5089361;28;20094;-60
2021/04/25 09:48:29;;;;;;;20.38;4.07;;;20.20;34.10;;;;;;5089189;28;20149;-58
2021/04/25 09:51:26;;;;;;;25.70;3.95;;;20.10;34.10;;;;;;5090811;28;20072;-59
2021/04/25 09:53:52;;;;;;;23.38;4.38;;;20.00;33.70;;;;;;5090856;28;20156;-58
2021/04/25 09:56:20;;;;;;;;;;;20.10;33.90;;;;;;5092986;28;20104;-59
2021/04/25 09:58:58;;;;;;;27.20;4.07;;;20.00;33.20;;;;;;5090450;28;19961;-60
2021/04/25 10:01:26;;;;;;;18.40;3.78;;;19.90;34.70;;;;;;5090092;28;20076;-59
2021/04/25 10:03:52;;;;;;;28.85;4.63;;;19.90;34.10;;;;;;5091386;28;20077;-59
2021/04/25 10:06:19;;;;;;;;;;;19.90;33.70;;;;;;5073331;28;20210;-59
2021/04/25 10:08:49;;;;;;;25.55;4.28;;;19.80;33.60;;;;;;5093875;28;20396;-57
2021/04/25 10:11:18;;;;;;;38.85;4.90;;;19.80;34.30;;;;;;5088028;28;20080;-58
2021/04/25 10:13:46;;;;;;;21.05;3.60;;;19.80;34.50;;;;;;5093191;28;20508;-60
2021/04/25 10:16:17;;;;;;;19.17;4.35;;;19.70;34.10;;;;;;5092157;28;20094;-58
2021/04/25 10:18:45;;;;;;;27.90;5.38;;;19.80;35.10;;;;;;5089299;28;20073;-60
2021/04/25 10:21:12;;;;;;;22.25;4.57;;;19.70;35.90;;;;;;5094407;28;20077;-58
2021/04/25 10:23:39;;;;;;;31.52;4.47;;;19.60;35.40;;;;;;5093166;28;20563;-59
2021/04/25 10:26:11;;;;;;;18.13;4.25;;;19.50;34.70;;;;;;5092040;28;20436;-56
2021/04/25 10:28:40;;;;;;;26.85;4.57;;;19.40;34.80;;;;;;5091050;28;21592;-59
2021/04/25 10:31:11;;;;;;;26.48;3.83;;;19.50;35.40;;;;;;5091684;28;20095;-59
2021/04/25 10:33:53;;;;;;;25.00;4.22;;;19.40;35.90;;;;;;5090632;28;20080;-57
2021/04/25 10:36:23;;;;;;;19.95;3.38;;;19.50;35.20;;;;;;5090595;28;20115;-59
2021/04/25 10:38:50;;;;;;;26.50;5.03;;;19.50;35.20;;;;;;5089805;28;20083;-54
2021/04/25 10:41:26;;;;;;;17.77;3.67;;;19.40;35.10;;;;;;5087899;28;20509;-58
2021/04/25 10:44:05;;;;;;;28.52;5.15;;;19.40;34.60;;;;;;5092887;28;20080;-55
2021/04/25 10:46:53;;;;;;;22.73;4.22;;;19.20;35.40;;;;;;5090267;28;20112;-59
2021/04/25 10:49:39;;;;;;;24.75;4.43;;;19.30;35.50;;;;;;5092351;28;20105;-59
2021/04/25 10:52:28;;;;;;;18.05;4.25;;;19.30;34.70;;;;;;5074231;28;20076;-57
2021/04/25 10:58:00;;;;;;;26.30;5.25;;;19.20;35.10;;;;;;5094151;28;20214;-60
2021/04/25 11:03:08;;;;;;;32.75;5.55;;;19.20;35.10;;;;;;5087019;28;20130;-59
2021/04/25 11:05:39;;;;;;;40.92;8.15;;;19.10;35.20;;;;;;5090442;28;20099;-59
2021/04/25 11:08:05;;;;;;;33.58;7.28;;;19.10;36.80;;;;;;5094900;28;20088;-58
2021/04/25 11:10:50;;;;;;;45.00;10.25;;;19.00;35.90;;;;;;5092617;28;20076;-59
2021/04/25 11:13:47;;;;;;;47.05;10.05;;;19.00;36.90;;;;;;5102809;28;20065;-59
2021/04/25 11:16:17;;;;;;;43.15;9.63;;;19.10;36.70;;;;;;5093455;28;20082;-57
2021/04/25 11:19:24;;;;;;;48.55;10.38;;;19.00;37.10;;;;;;5093680;28;20123;-59
2021/04/25 11:21:54;;;;;;;52.85;10.20;;;18.90;36.90;;;;;;5092838;28;20560;-60
2021/04/25 11:24:23;;;;;;;58.20;12.57;;;18.80;36.70;;;;;;5096467;28;20441;-59
2021/04/25 11:26:52;;;;;;;70.95;12.52;;;18.80;37.80;;;;;;5097011;28;20091;-59
2021/04/25 11:29:20;;;;;;;56.47;12.20;;;18.80;37.60;;;;;;5094256;28;20088;-60
2021/04/25 11:31:54;;;;;;;56.67;13.68;;;18.80;38.60;;;;;;5091208;28;20076;-60
2021/04/25 11:34:26;;;;;;;50.78;11.93;;;18.70;38.20;;;;;;5092765;28;20073;-58
2021/04/25 11:36:58;;;;;;;61.10;11.75;;;18.70;38.70;;;;;;5096809;28;20061;-56
2021/04/25 11:39:39;;;;;;;52.85;11.65;;;18.70;38.70;;;;;;5094855;28;20081;-59
2021/04/25 11:42:07;;;;;;;55.33;12.15;;;18.80;38.80;;;;;;5091466;28;20080;-58
2021/04/25 11:44:35;;;;;;;49.97;11.32;;;18.70;39.10;;;;;;5095426;28;20072;-57
2021/04/25 11:47:09;;;;;;;54.92;12.23;;;18.60;38.90;;;;;;5094922;28;20472;-59
2021/04/25 11:49:41;;;;;;;66.53;13.95;;;18.60;39.10;;;;;;5094600;28;20694;-57
2021/04/25 11:52:17;;;;;;;68.63;13.82;;;18.60;40.20;;;;;;5092047;28;20270;-59
2021/04/25 11:54:59;;;;;;;59.17;14.60;;;18.50;39.70;;;;;;5092782;28;20435;-58
2021/04/25 11:57:26;;;;;;;69.78;15.73;;;18.40;39.50;;;;;;5095539;28;20076;-58
2021/04/25 12:00:01;;;;;;;72.20;16.27;;;18.40;39.80;;;;;;5095217;28;20080;-57
2021/04/25 12:02:46;;;;;;;75.30;15.00;;;18.40;40.20;;;;;;5094245;28;20068;-57
2021/04/25 12:05:19;;;;;;;61.17;14.57;;;18.40;39.90;;;;;;5090001;28;20073;-58
2021/04/25 12:08:06;;;;;;;78.50;15.90;;;18.40;40.10;;;;;;5093737;28;20100;-55
2021/04/25 12:10:37;;;;;;;59.85;13.70;;;18.40;41.10;;;;;;5093840;28;20072;-57
2021/04/25 12:13:19;;;;;;;68.18;15.20;;;18.30;40.60;;;;;;5093016;28;20073;-56
2021/04/25 12:15:56;;;;;;;73.90;16.67;;;18.30;40.80;;;;;;5097200;28;20196;-53
2021/04/25 12:18:31;;;;;;;94.88;18.92;;;18.20;41.90;;;;;;5095477;28;20068;-53
2021/04/25 12:21:06;;;;;;;105.93;23.20;;;18.30;41.30;;;;;;5089289;28;20080;-60
2021/04/25 12:23:44;;;;;;;103.30;25.02;;;18.20;41.70;;;;;;5090384;28;20075;-59
2021/04/25 12:26:16;;;;;;;94.45;26.77;;;18.10;42.60;;;;;;5092609;28;20068;-57
2021/04/25 12:28:56;;;;;;;105.40;26.58;;;18.00;43.00;;;;;;5091076;28;20097;-54
2021/04/25 12:31:40;;;;;;;104.80;28.30;;;17.90;42.90;;;;;;5091939;28;20100;-56
2021/04/25 12:34:07;;;;;;;110.15;29.60;;;17.90;43.50;;;;;;5073581;28;20076;-58
2021/04/25 12:36:33;;;;;;;111.65;28.38;;;17.90;44.40;;;;;;5090774;28;20434;-53
2021/04/25 12:39:07;;;;;;;;;;;17.90;44.00;;;;;;5090456;28;20455;-54
2021/04/25 12:41:44;;;;;;;100.88;29.27;;;17.90;44.00;;;;;;5089596;28;19999;-55
2021/04/25 12:44:12;;;;;;;103.72;29.05;;;17.90;44.90;;;;;;5092732;28;20118;-56
2021/04/25 12:46:39;;;;;;;102.55;29.80;;;17.90;45.60;;;;;;5092347;28;20173;-57
2021/04/25 12:49:09;;;;;;;113.53;31.20;;;17.90;44.40;;;;;;5091861;28;20195;-55
2021/04/25 12:51:42;;;;;;;99.68;30.27;;;17.90;44.40;;;;;;5089999;28;20080;-54
2021/04/25 12:54:14;;;;;;;97.60;29.60;;;17.90;45.20;;;;;;5091527;28;20069;-53